sensor_id;sensor_type;location;lat;lon;timestamp;P1;durP1;ratioP1;P2;durP2;ratioP2
15402;SDS011;7799;53.478;10.170;2022-09-09T00:00:08;3.00;;;2.80;;
15402;SDS011;7799;53.478;10.170;2022-09-09T00:02:38;5.00;;;4.40;;
15402;SDS011;7799;53.478;10.170;2022-09-09T00:05:12;4.67;;;4.27;;
15402;SDS011;7799;53.478;10.170;2022-09-09T00:07:45;4.20;;;3.87;;
15402;SDS011;7799;53.478;10.170;2022-09-09T00:10:16;6.60;;;4.50;;
15402;SDS011;7799;53.478;10.170;2022-09-09T00:12:48;4.30;;;3.77;;
15402;SDS011;7799;53.478;10.170;2022-09-09T00:15:21;4.10;;;3.80;;
15402;SDS011;7799;53.478;10.170;2022-09-09T00:17:50;6.17;;;5.10;;
15402;SDS011;7799;53.478;10.170;2022-09-09T00:20:20;4.87;;;4.07;;
15402;SDS011;7799;53.478;10.170;2022-09-09T00:22:53;3.90;;;3.60;;
15402;SDS011;7799;53.478;10.170;2022-09-09T00:25:27;2.87;;;2.67;;
15402;SDS011;7799;53.478;10.170;2022-09-09T00:27:56;3.80;;;3.50;;
15402;SDS011;7799;53.478;10.170;2022-09-09T00:30:23;5.63;;;5.13;;
15402;SDS011;7799;53.478;10.170;2022-09-09T00:32:52;6.23;;;5.73;;
15402;SDS011;7799;53.478;10.170;2022-09-09T00:35:24;4.37;;;4.07;;
15402;SDS011;7799;53.478;10.170;2022-09-09T00:37:53;4.10;;;3.80;;
15402;SDS011;7799;53.478;10.170;2022-09-09T00:40:24;6.17;;;5.67;;
15402;SDS011;7799;53.478;10.170;2022-09-09T00:42:54;5.80;;;5.20;;
15402;SDS011;7799;53.478;10.170;2022-09-09T00:45:55;5.80;;;4.97;;
15402;SDS011;7799;53.478;10.170;2022-09-09T00:48:28;5.00;;;4.60;;
15402;SDS011;7799;53.478;10.170;2022-09-09T00:50:59;5.17;;;4.77;;
15402;SDS011;7799;53.478;10.170;2022-09-09T00:53:32;4.40;;;4.00;;
15402;SDS011;7799;53.478;10.170;2022-09-09T00:56:06;5.53;;;5.13;;
15402;SDS011;7799;53.478;10.170;2022-09-09T00:58:38;5.03;;;4.63;;
15402;SDS011;7799;53.478;10.170;2022-09-09T01:01:05;4.97;;;4.57;;
15402;SDS011;7799;53.478;10.170;2022-09-09T01:03:34;6.03;;;5.53;;
15402;SDS011;7799;53.478;10.170;2022-09-09T01:06:02;5.60;;;5.10;;
15402;SDS011;7799;53.478;10.170;2022-09-09T01:11:25;6.43;;;5.93;;
15402;SDS011;7799;53.478;10.170;2022-09-09T01:13:53;6.67;;;6.17;;
15402;SDS011;7799;53.478;10.170;2022-09-09T01:16:24;4.93;;;4.53;;
15402;SDS011;7799;53.478;10.170;2022-09-09T01:18:52;4.80;;;4.40;;
15402;SDS011;7799;53.478;10.170;2022-09-09T01:21:20;5.30;;;4.90;;
15402;SDS011;7799;53.478;10.170;2022-09-09T01:23:57;6.47;;;5.87;;
15402;SDS011;7799;53.478;10.170;2022-09-09T01:26:36;5.50;;;5.07;;
15402;SDS011;7799;53.478;10.170;2022-09-09T01:29:04;5.60;;;5.10;;
15402;SDS011;7799;53.478;10.170;2022-09-09T01:31:34;4.13;;;3.83;;
15402;SDS011;7799;53.478;10.170;2022-09-09T01:34:04;4.70;;;4.30;;
15402;SDS011;7799;53.478;10.170;2022-09-09T01:36:37;3.77;;;3.47;;
15402;SDS011;7799;53.478;10.170;2022-09-09T01:39:07;3.30;;;3.10;;
15402;SDS011;7799;53.478;10.170;2022-09-09T01:41:33;3.20;;;3.00;;
15402;SDS011;7799;53.478;10.170;2022-09-09T01:44:01;2.67;;;2.47;;
15402;SDS011;7799;53.478;10.170;2022-09-09T01:46:28;3.23;;;2.93;;
15402;SDS011;7799;53.478;10.170;2022-09-09T01:48:55;3.90;;;3.50;;
15402;SDS011;7799;53.478;10.170;2022-09-09T01:51:22;3.30;;;3.10;;
15402;SDS011;7799;53.478;10.170;2022-09-09T01:53:49;5.47;;;4.80;;
15402;SDS011;7799;53.478;10.170;2022-09-09T01:56:19;4.17;;;3.77;;
15402;SDS011;7799;53.478;10.170;2022-09-09T01:58:58;3.70;;;3.40;;
15402;SDS011;7799;53.478;10.170;2022-09-09T02:01:34;2.93;;;2.73;;
15402;SDS011;7799;53.478;10.170;2022-09-09T02:04:14;2.73;;;2.53;;
15402;SDS011;7799;53.478;10.170;2022-09-09T02:06:47;3.23;;;3.00;;
15402;SDS011;7799;53.478;10.170;2022-09-09T02:09:14;5.60;;;4.47;;
15402;SDS011;7799;53.478;10.170;2022-09-09T02:11:43;4.47;;;4.10;;
15402;SDS011;7799;53.478;10.170;2022-09-09T02:14:13;6.00;;;5.37;;
15402;SDS011;7799;53.478;10.170;2022-09-09T02:16:44;5.77;;;5.27;;
15402;SDS011;7799;53.478;10.170;2022-09-09T02:19:14;5.20;;;4.70;;
15402;SDS011;7799;53.478;10.170;2022-09-09T02:21:46;6.90;;;6.20;;
15402;SDS011;7799;53.478;10.170;2022-09-09T02:24:13;7.53;;;6.40;;
15402;SDS011;7799;53.478;10.170;2022-09-09T02:26:41;5.57;;;5.10;;
15402;SDS011;7799;53.478;10.170;2022-09-09T02:29:12;6.20;;;5.50;;
15402;SDS011;7799;53.478;10.170;2022-09-09T02:31:42;3.60;;;3.40;;
15402;SDS011;7799;53.478;10.170;2022-09-09T02:34:10;5.53;;;4.60;;
15402;SDS011;7799;53.478;10.170;2022-09-09T02:36:38;5.23;;;4.73;;
15402;SDS011;7799;53.478;10.170;2022-09-09T02:39:08;5.30;;;4.90;;
15402;SDS011;7799;53.478;10.170;2022-09-09T02:41:37;5.37;;;4.97;;
15402;SDS011;7799;53.478;10.170;2022-09-09T02:44:05;3.83;;;3.60;;
15402;SDS011;7799;53.478;10.170;2022-09-09T02:46:36;3.30;;;3.10;;
15402;SDS011;7799;53.478;10.170;2022-09-09T02:49:09;5.40;;;4.90;;
15402;SDS011;7799;53.478;10.170;2022-09-09T02:51:37;3.80;;;3.53;;
15402;SDS011;7799;53.478;10.170;2022-09-09T02:54:09;4.37;;;4.07;;
15402;SDS011;7799;53.478;10.170;2022-09-09T02:56:39;3.63;;;3.33;;
15402;SDS011;7799;53.478;10.170;2022-09-09T02:59:07;3.83;;;3.53;;
15402;SDS011;7799;53.478;10.170;2022-09-09T03:01:33;3.60;;;3.30;;
15402;SDS011;7799;53.478;10.170;2022-09-09T03:04:02;4.00;;;3.70;;
15402;SDS011;7799;53.478;10.170;2022-09-09T03:06:30;5.83;;;5.33;;
15402;SDS011;7799;53.478;10.170;2022-09-09T03:08:56;5.70;;;5.20;;
15402;SDS011;7799;53.478;10.170;2022-09-09T03:11:25;4.43;;;4.13;;
15402;SDS011;7799;53.478;10.170;2022-09-09T03:13:52;3.90;;;3.60;;
15402;SDS011;7799;53.478;10.170;2022-09-09T03:16:19;3.73;;;3.53;;
15402;SDS011;7799;53.478;10.170;2022-09-09T03:18:46;3.50;;;3.23;;
15402;SDS011;7799;53.478;10.170;2022-09-09T03:21:14;3.80;;;3.50;;
15402;SDS011;7799;53.478;10.170;2022-09-09T03:23:41;3.80;;;3.57;;
15402;SDS011;7799;53.478;10.170;2022-09-09T03:26:07;4.30;;;4.00;;
15402;SDS011;7799;53.478;10.170;2022-09-09T03:28:34;2.83;;;2.63;;
15402;SDS011;7799;53.478;10.170;2022-09-09T03:31:00;3.00;;;2.80;;
15402;SDS011;7799;53.478;10.170;2022-09-09T03:33:27;3.40;;;3.20;;
15402;SDS011;7799;53.478;10.170;2022-09-09T03:35:54;3.97;;;3.67;;
15402;SDS011;7799;53.478;10.170;2022-09-09T03:38:22;5.80;;;4.53;;
15402;SDS011;7799;53.478;10.170;2022-09-09T03:40:50;6.20;;;5.70;;
15402;SDS011;7799;53.478;10.170;2022-09-09T03:43:20;5.57;;;5.17;;
15402;SDS011;7799;53.478;10.170;2022-09-09T03:45:46;5.93;;;5.50;;
15402;SDS011;7799;53.478;10.170;2022-09-09T03:48:13;6.17;;;5.57;;
15402;SDS011;7799;53.478;10.170;2022-09-09T03:50:43;4.93;;;4.40;;
15402;SDS011;7799;53.478;10.170;2022-09-09T03:53:10;4.53;;;4.23;;
15402;SDS011;7799;53.478;10.170;2022-09-09T03:55:38;3.97;;;3.67;;
15402;SDS011;7799;53.478;10.170;2022-09-09T03:58:06;3.93;;;3.63;;
15402;SDS011;7799;53.478;10.170;2022-09-09T04:00:33;3.50;;;3.30;;
15402;SDS011;7799;53.478;10.170;2022-09-09T04:02:59;5.10;;;4.70;;
15402;SDS011;7799;53.478;10.170;2022-09-09T04:05:26;4.53;;;4.13;;
15402;SDS011;7799;53.478;10.170;2022-09-09T04:07:52;6.13;;;5.20;;
15402;SDS011;7799;53.478;10.170;2022-09-09T04:10:19;5.43;;;5.03;;
15402;SDS011;7799;53.478;10.170;2022-09-09T04:12:47;6.00;;;5.40;;
15402;SDS011;7799;53.478;10.170;2022-09-09T04:15:14;4.93;;;4.60;;
15402;SDS011;7799;53.478;10.170;2022-09-09T04:17:40;4.60;;;4.20;;
15402;SDS011;7799;53.478;10.170;2022-09-09T04:20:07;5.03;;;4.63;;
15402;SDS011;7799;53.478;10.170;2022-09-09T04:22:36;3.80;;;3.50;;
15402;SDS011;7799;53.478;10.170;2022-09-09T04:25:04;3.50;;;3.20;;
15402;SDS011;7799;53.478;10.170;2022-09-09T04:27:31;4.10;;;3.80;;
15402;SDS011;7799;53.478;10.170;2022-09-09T04:29:59;3.03;;;2.83;;
15402;SDS011;7799;53.478;10.170;2022-09-09T04:32:25;3.90;;;3.60;;
15402;SDS011;7799;53.478;10.170;2022-09-09T04:34:52;3.73;;;3.30;;
15402;SDS011;7799;53.478;10.170;2022-09-09T04:37:19;4.60;;;4.20;;
15402;SDS011;7799;53.478;10.170;2022-09-09T04:39:45;5.13;;;4.73;;
15402;SDS011;7799;53.478;10.170;2022-09-09T04:42:12;6.10;;;5.60;;
15402;SDS011;7799;53.478;10.170;2022-09-09T04:44:38;5.30;;;4.90;;
15402;SDS011;7799;53.478;10.170;2022-09-09T04:47:07;6.20;;;5.70;;
15402;SDS011;7799;53.478;10.170;2022-09-09T04:49:34;7.37;;;6.77;;
15402;SDS011;7799;53.478;10.170;2022-09-09T04:52:01;6.10;;;5.60;;
15402;SDS011;7799;53.478;10.170;2022-09-09T04:54:28;4.80;;;4.40;;
15402;SDS011;7799;53.478;10.170;2022-09-09T04:56:55;6.40;;;5.90;;
15402;SDS011;7799;53.478;10.170;2022-09-09T04:59:21;6.40;;;5.80;;
15402;SDS011;7799;53.478;10.170;2022-09-09T05:01:48;5.27;;;4.87;;
15402;SDS011;7799;53.478;10.170;2022-09-09T05:04:16;4.57;;;4.17;;
15402;SDS011;7799;53.478;10.170;2022-09-09T05:06:44;5.60;;;5.20;;
15402;SDS011;7799;53.478;10.170;2022-09-09T05:09:10;6.00;;;5.57;;
15402;SDS011;7799;53.478;10.170;2022-09-09T05:11:37;5.30;;;4.90;;
15402;SDS011;7799;53.478;10.170;2022-09-09T05:14:04;5.50;;;5.10;;
15402;SDS011;7799;53.478;10.170;2022-09-09T05:16:30;5.83;;;5.43;;
15402;SDS011;7799;53.478;10.170;2022-09-09T05:18:57;4.97;;;4.60;;
15402;SDS011;7799;53.478;10.170;2022-09-09T05:21:25;4.27;;;3.97;;
15402;SDS011;7799;53.478;10.170;2022-09-09T05:23:53;4.63;;;4.33;;
15402;SDS011;7799;53.478;10.170;2022-09-09T05:26:20;5.10;;;4.70;;
15402;SDS011;7799;53.478;10.170;2022-09-09T05:28:47;4.50;;;4.20;;
15402;SDS011;7799;53.478;10.170;2022-09-09T05:31:15;4.83;;;4.53;;
15402;SDS011;7799;53.478;10.170;2022-09-09T05:33:43;5.63;;;5.23;;
15402;SDS011;7799;53.478;10.170;2022-09-09T05:36:11;4.60;;;4.20;;
15402;SDS011;7799;53.478;10.170;2022-09-09T05:38:40;4.83;;;4.43;;
15402;SDS011;7799;53.478;10.170;2022-09-09T05:41:08;5.37;;;4.87;;
15402;SDS011;7799;53.478;10.170;2022-09-09T05:43:35;4.73;;;4.33;;
15402;SDS011;7799;53.478;10.170;2022-09-09T05:46:03;3.97;;;3.67;;
15402;SDS011;7799;53.478;10.170;2022-09-09T05:48:31;4.23;;;3.93;;
15402;SDS011;7799;53.478;10.170;2022-09-09T05:50:59;4.60;;;4.30;;
15402;SDS011;7799;53.478;10.170;2022-09-09T05:53:27;5.00;;;4.60;;
15402;SDS011;7799;53.478;10.170;2022-09-09T05:56:02;4.67;;;4.27;;
15402;SDS011;7799;53.478;10.170;2022-09-09T05:58:30;4.80;;;4.40;;
15402;SDS011;7799;53.478;10.170;2022-09-09T06:01:00;5.17;;;4.77;;
15402;SDS011;7799;53.478;10.170;2022-09-09T06:03:28;5.27;;;4.87;;
15402;SDS011;7799;53.478;10.170;2022-09-09T06:05:58;4.30;;;3.90;;
15402;SDS011;7799;53.478;10.170;2022-09-09T06:11:01;4.03;;;3.73;;
15402;SDS011;7799;53.478;10.170;2022-09-09T06:13:29;4.77;;;4.37;;
15402;SDS011;7799;53.478;10.170;2022-09-09T06:15:56;4.47;;;4.07;;
15402;SDS011;7799;53.478;10.170;2022-09-09T06:18:23;4.27;;;3.97;;
15402;SDS011;7799;53.478;10.170;2022-09-09T06:20:54;4.93;;;4.53;;
15402;SDS011;7799;53.478;10.170;2022-09-09T06:23:21;3.50;;;3.30;;
15402;SDS011;7799;53.478;10.170;2022-09-09T06:25:48;4.03;;;3.73;;
15402;SDS011;7799;53.478;10.170;2022-09-09T06:28:17;3.20;;;3.00;;
15402;SDS011;7799;53.478;10.170;2022-09-09T06:30:44;2.63;;;2.43;;
15402;SDS011;7799;53.478;10.170;2022-09-09T06:33:10;3.60;;;3.40;;
15402;SDS011;7799;53.478;10.170;2022-09-09T06:35:37;2.70;;;2.50;;
15402;SDS011;7799;53.478;10.170;2022-09-09T06:38:03;2.80;;;2.60;;
15402;SDS011;7799;53.478;10.170;2022-09-09T06:40:30;3.00;;;2.80;;
15402;SDS011;7799;53.478;10.170;2022-09-09T06:42:59;2.53;;;2.43;;
15402;SDS011;7799;53.478;10.170;2022-09-09T06:45:27;2.87;;;2.57;;
15402;SDS011;7799;53.478;10.170;2022-09-09T06:47:54;2.10;;;2.00;;
15402;SDS011;7799;53.478;10.170;2022-09-09T06:50:21;2.50;;;2.23;;
15402;SDS011;7799;53.478;10.170;2022-09-09T06:52:47;2.67;;;2.47;;
15402;SDS011;7799;53.478;10.170;2022-09-09T06:55:14;2.70;;;2.50;;
15402;SDS011;7799;53.478;10.170;2022-09-09T06:57:42;2.67;;;2.50;;
15402;SDS011;7799;53.478;10.170;2022-09-09T07:00:10;2.70;;;2.50;;
15402;SDS011;7799;53.478;10.170;2022-09-09T07:02:40;2.37;;;2.27;;
15402;SDS011;7799;53.478;10.170;2022-09-09T07:05:07;2.27;;;2.10;;
15402;SDS011;7799;53.478;10.170;2022-09-09T07:07:34;2.80;;;2.60;;
15402;SDS011;7799;53.478;10.170;2022-09-09T07:10:01;3.50;;;3.20;;
15402;SDS011;7799;53.478;10.170;2022-09-09T07:12:29;2.47;;;2.37;;
15402;SDS011;7799;53.478;10.170;2022-09-09T07:14:55;3.23;;;3.03;;
15402;SDS011;7799;53.478;10.170;2022-09-09T07:17:22;2.53;;;2.43;;
15402;SDS011;7799;53.478;10.170;2022-09-09T07:19:49;1.93;;;1.83;;
15402;SDS011;7799;53.478;10.170;2022-09-09T07:22:17;1.80;;;1.70;;
15402;SDS011;7799;53.478;10.170;2022-09-09T07:24:45;2.30;;;2.10;;
15402;SDS011;7799;53.478;10.170;2022-09-09T07:27:11;2.50;;;2.13;;
15402;SDS011;7799;53.478;10.170;2022-09-09T07:29:38;2.13;;;2.03;;
15402;SDS011;7799;53.478;10.170;2022-09-09T07:32:04;2.77;;;2.57;;
15402;SDS011;7799;53.478;10.170;2022-09-09T07:34:31;2.30;;;2.20;;
15402;SDS011;7799;53.478;10.170;2022-09-09T07:36:59;2.30;;;1.90;;
15402;SDS011;7799;53.478;10.170;2022-09-09T07:39:25;1.80;;;1.70;;
15402;SDS011;7799;53.478;10.170;2022-09-09T07:41:52;1.50;;;1.40;;
15402;SDS011;7799;53.478;10.170;2022-09-09T07:44:20;1.30;;;1.20;;
15402;SDS011;7799;53.478;10.170;2022-09-09T07:46:47;1.70;;;1.60;;
15402;SDS011;7799;53.478;10.170;2022-09-09T07:49:14;1.87;;;1.77;;
15402;SDS011;7799;53.478;10.170;2022-09-09T07:51:42;1.30;;;1.20;;
15402;SDS011;7799;53.478;10.170;2022-09-09T07:54:11;1.50;;;1.40;;
15402;SDS011;7799;53.478;10.170;2022-09-09T07:56:39;1.40;;;1.30;;
15402;SDS011;7799;53.478;10.170;2022-09-09T07:59:06;1.57;;;1.47;;
15402;SDS011;7799;53.478;10.170;2022-09-09T08:01:33;1.27;;;1.00;;
15402;SDS011;7799;53.478;10.170;2022-09-09T08:04:04;1.40;;;1.30;;
15402;SDS011;7799;53.478;10.170;2022-09-09T08:06:32;1.17;;;1.03;;
15402;SDS011;7799;53.478;10.170;2022-09-09T08:09:01;1.07;;;1.07;;
15402;SDS011;7799;53.478;10.170;2022-09-09T08:11:29;1.93;;;1.20;;
15402;SDS011;7799;53.478;10.170;2022-09-09T08:13:56;1.27;;;1.13;;
15402;SDS011;7799;53.478;10.170;2022-09-09T08:16:23;1.40;;;1.30;;
15402;SDS011;7799;53.478;10.170;2022-09-09T08:18:51;1.83;;;1.67;;
15402;SDS011;7799;53.478;10.170;2022-09-09T08:21:20;1.60;;;1.50;;
15402;SDS011;7799;53.478;10.170;2022-09-09T08:23:47;1.40;;;1.30;;
15402;SDS011;7799;53.478;10.170;2022-09-09T08:26:14;1.33;;;1.10;;
15402;SDS011;7799;53.478;10.170;2022-09-09T08:28:43;1.13;;;1.10;;
15402;SDS011;7799;53.478;10.170;2022-09-09T08:31:11;0.90;;;0.90;;
15402;SDS011;7799;53.478;10.170;2022-09-09T08:33:38;1.10;;;1.00;;
15402;SDS011;7799;53.478;10.170;2022-09-09T08:36:06;1.10;;;1.00;;
15402;SDS011;7799;53.478;10.170;2022-09-09T08:38:34;1.27;;;1.00;;
15402;SDS011;7799;53.478;10.170;2022-09-09T08:41:05;1.70;;;1.20;;
15402;SDS011;7799;53.478;10.170;2022-09-09T08:43:44;0.83;;;0.83;;
15402;SDS011;7799;53.478;10.170;2022-09-09T08:46:14;0.60;;;0.60;;
15402;SDS011;7799;53.478;10.170;2022-09-09T08:48:46;0.60;;;0.60;;
15402;SDS011;7799;53.478;10.170;2022-09-09T08:51:17;1.13;;;0.80;;
15402;SDS011;7799;53.478;10.170;2022-09-09T08:53:46;0.70;;;0.70;;
15402;SDS011;7799;53.478;10.170;2022-09-09T08:56:16;1.27;;;0.70;;
15402;SDS011;7799;53.478;10.170;2022-09-09T08:58:47;0.70;;;0.70;;
15402;SDS011;7799;53.478;10.170;2022-09-09T09:01:17;0.90;;;0.90;;
15402;SDS011;7799;53.478;10.170;2022-09-09T09:03:51;0.60;;;0.60;;
15402;SDS011;7799;53.478;10.170;2022-09-09T09:06:26;1.23;;;1.13;;
15402;SDS011;7799;53.478;10.170;2022-09-09T09:09:01;0.90;;;0.90;;
15402;SDS011;7799;53.478;10.170;2022-09-09T09:11:34;0.80;;;0.80;;
15402;SDS011;7799;53.478;10.170;2022-09-09T09:14:04;0.90;;;0.90;;
15402;SDS011;7799;53.478;10.170;2022-09-09T09:16:36;1.00;;;1.00;;
15402;SDS011;7799;53.478;10.170;2022-09-09T09:19:05;0.70;;;0.70;;
15402;SDS011;7799;53.478;10.170;2022-09-09T09:21:36;0.90;;;0.90;;
15402;SDS011;7799;53.478;10.170;2022-09-09T09:24:09;1.00;;;1.00;;
15402;SDS011;7799;53.478;10.170;2022-09-09T09:26:40;1.20;;;0.80;;
15402;SDS011;7799;53.478;10.170;2022-09-09T09:29:11;0.60;;;0.60;;
15402;SDS011;7799;53.478;10.170;2022-09-09T09:31:41;0.60;;;0.60;;
15402;SDS011;7799;53.478;10.170;2022-09-09T09:34:09;1.00;;;1.00;;
15402;SDS011;7799;53.478;10.170;2022-09-09T09:36:38;1.83;;;1.07;;
15402;SDS011;7799;53.478;10.170;2022-09-09T09:39:07;1.17;;;1.07;;
15402;SDS011;7799;53.478;10.170;2022-09-09T09:41:34;1.50;;;1.33;;
15402;SDS011;7799;53.478;10.170;2022-09-09T09:44:03;1.33;;;1.20;;
15402;SDS011;7799;53.478;10.170;2022-09-09T09:46:32;1.40;;;1.10;;
15402;SDS011;7799;53.478;10.170;2022-09-09T09:48:59;0.80;;;0.80;;
15402;SDS011;7799;53.478;10.170;2022-09-09T09:51:26;0.87;;;0.70;;
15402;SDS011;7799;53.478;10.170;2022-09-09T09:53:54;0.50;;;0.50;;
15402;SDS011;7799;53.478;10.170;2022-09-09T09:56:35;1.17;;;0.80;;
15402;SDS011;7799;53.478;10.170;2022-09-09T09:59:02;0.50;;;0.50;;
15402;SDS011;7799;53.478;10.170;2022-09-09T10:01:29;1.23;;;1.13;;
15402;SDS011;7799;53.478;10.170;2022-09-09T10:03:59;0.93;;;0.93;;
15402;SDS011;7799;53.478;10.170;2022-09-09T10:06:31;1.20;;;1.10;;
15402;SDS011;7799;53.478;10.170;2022-09-09T10:08:58;1.30;;;1.20;;
15402;SDS011;7799;53.478;10.170;2022-09-09T10:11:30;1.30;;;0.87;;
15402;SDS011;7799;53.478;10.170;2022-09-09T10:14:05;1.00;;;1.00;;
15402;SDS011;7799;53.478;10.170;2022-09-09T10:16:43;1.27;;;1.10;;
15402;SDS011;7799;53.478;10.170;2022-09-09T10:19:18;0.90;;;0.90;;
15402;SDS011;7799;53.478;10.170;2022-09-09T10:24:43;0.67;;;0.67;;
15402;SDS011;7799;53.478;10.170;2022-09-09T10:27:19;0.70;;;0.70;;
15402;SDS011;7799;53.478;10.170;2022-09-09T10:29:54;0.80;;;0.80;;
15402;SDS011;7799;53.478;10.170;2022-09-09T10:32:40;1.83;;;1.00;;
15402;SDS011;7799;53.478;10.170;2022-09-09T10:35:19;0.87;;;0.80;;
15402;SDS011;7799;53.478;10.170;2022-09-09T10:37:54;1.10;;;1.00;;
15402;SDS011;7799;53.478;10.170;2022-09-09T10:40:31;0.97;;;0.90;;
15402;SDS011;7799;53.478;10.170;2022-09-09T10:43:01;1.77;;;1.00;;
15402;SDS011;7799;53.478;10.170;2022-09-09T10:45:34;0.70;;;0.70;;
15402;SDS011;7799;53.478;10.170;2022-09-09T10:48:12;1.00;;;0.90;;
15402;SDS011;7799;53.478;10.170;2022-09-09T10:50:48;1.17;;;0.90;;
15402;SDS011;7799;53.478;10.170;2022-09-09T10:53:18;1.17;;;0.80;;
15402;SDS011;7799;53.478;10.170;2022-09-09T10:55:51;0.83;;;0.80;;
15402;SDS011;7799;53.478;10.170;2022-09-09T10:58:20;2.33;;;1.00;;
15402;SDS011;7799;53.478;10.170;2022-09-09T11:00:50;1.13;;;1.00;;
15402;SDS011;7799;53.478;10.170;2022-09-09T11:03:21;1.73;;;0.70;;
15402;SDS011;7799;53.478;10.170;2022-09-09T11:05:49;0.73;;;0.73;;
15402;SDS011;7799;53.478;10.170;2022-09-09T11:08:18;0.70;;;0.70;;
15402;SDS011;7799;53.478;10.170;2022-09-09T11:10:46;1.10;;;0.90;;
15402;SDS011;7799;53.478;10.170;2022-09-09T11:13:18;0.70;;;0.70;;
15402;SDS011;7799;53.478;10.170;2022-09-09T11:15:52;0.80;;;0.80;;
15402;SDS011;7799;53.478;10.170;2022-09-09T11:18:22;0.70;;;0.70;;
15402;SDS011;7799;53.478;10.170;2022-09-09T11:20:50;0.77;;;0.70;;
15402;SDS011;7799;53.478;10.170;2022-09-09T11:23:21;1.10;;;1.10;;
15402;SDS011;7799;53.478;10.170;2022-09-09T11:25:51;0.83;;;0.70;;
15402;SDS011;7799;53.478;10.170;2022-09-09T11:28:25;0.90;;;0.90;;
15402;SDS011;7799;53.478;10.170;2022-09-09T11:31:01;1.00;;;1.00;;
15402;SDS011;7799;53.478;10.170;2022-09-09T11:33:41;0.80;;;0.80;;
15402;SDS011;7799;53.478;10.170;2022-09-09T11:39:16;1.00;;;0.90;;
15402;SDS011;7799;53.478;10.170;2022-09-09T11:42:07;0.80;;;0.80;;
15402;SDS011;7799;53.478;10.170;2022-09-09T11:44:42;0.80;;;0.80;;
15402;SDS011;7799;53.478;10.170;2022-09-09T11:47:22;0.93;;;0.80;;
15402;SDS011;7799;53.478;10.170;2022-09-09T11:49:55;1.07;;;0.70;;
15402;SDS011;7799;53.478;10.170;2022-09-09T11:52:36;1.60;;;1.00;;
15402;SDS011;7799;53.478;10.170;2022-09-09T11:55:08;1.10;;;1.00;;
15402;SDS011;7799;53.478;10.170;2022-09-09T11:57:36;1.80;;;1.30;;
15402;SDS011;7799;53.478;10.170;2022-09-09T12:00:03;1.27;;;1.17;;
15402;SDS011;7799;53.478;10.170;2022-09-09T12:02:30;1.20;;;1.20;;
15402;SDS011;7799;53.478;10.170;2022-09-09T12:04:59;1.33;;;1.23;;
15402;SDS011;7799;53.478;10.170;2022-09-09T12:07:34;1.53;;;1.20;;
15402;SDS011;7799;53.478;10.170;2022-09-09T12:10:04;1.20;;;1.10;;
15402;SDS011;7799;53.478;10.170;2022-09-09T12:12:33;1.30;;;1.20;;
15402;SDS011;7799;53.478;10.170;2022-09-09T12:17:46;0.83;;;0.80;;
15402;SDS011;7799;53.478;10.170;2022-09-09T12:20:15;1.07;;;1.07;;
15402;SDS011;7799;53.478;10.170;2022-09-09T12:22:48;1.07;;;0.97;;
15402;SDS011;7799;53.478;10.170;2022-09-09T12:25:23;1.47;;;1.20;;
15402;SDS011;7799;53.478;10.170;2022-09-09T12:27:59;1.80;;;1.50;;
15402;SDS011;7799;53.478;10.170;2022-09-09T12:30:32;1.63;;;1.40;;
15402;SDS011;7799;53.478;10.170;2022-09-09T12:33:01;1.33;;;1.23;;
15402;SDS011;7799;53.478;10.170;2022-09-09T12:35:33;1.80;;;1.60;;
15402;SDS011;7799;53.478;10.170;2022-09-09T12:38:03;1.47;;;1.37;;
15402;SDS011;7799;53.478;10.170;2022-09-09T12:40:32;1.27;;;1.23;;
15402;SDS011;7799;53.478;10.170;2022-09-09T12:43:00;1.40;;;1.30;;
15402;SDS011;7799;53.478;10.170;2022-09-09T12:45:28;1.70;;;1.60;;
15402;SDS011;7799;53.478;10.170;2022-09-09T12:47:57;1.97;;;1.70;;
15402;SDS011;7799;53.478;10.170;2022-09-09T12:50:27;1.90;;;1.80;;
15402;SDS011;7799;53.478;10.170;2022-09-09T12:52:58;2.57;;;2.00;;
15402;SDS011;7799;53.478;10.170;2022-09-09T12:55:28;2.00;;;1.80;;
15402;SDS011;7799;53.478;10.170;2022-09-09T12:57:56;1.77;;;1.67;;
15402;SDS011;7799;53.478;10.170;2022-09-09T13:00:24;1.87;;;1.50;;
15402;SDS011;7799;53.478;10.170;2022-09-09T13:02:52;1.73;;;1.20;;
15402;SDS011;7799;53.478;10.170;2022-09-09T13:05:21;1.50;;;1.40;;
15402;SDS011;7799;53.478;10.170;2022-09-09T13:07:48;1.43;;;1.37;;
15402;SDS011;7799;53.478;10.170;2022-09-09T13:10:19;1.60;;;1.50;;
15402;SDS011;7799;53.478;10.170;2022-09-09T13:12:48;1.90;;;1.53;;
15402;SDS011;7799;53.478;10.170;2022-09-09T13:15:18;1.27;;;1.17;;
15402;SDS011;7799;53.478;10.170;2022-09-09T13:17:51;1.83;;;1.60;;
15402;SDS011;7799;53.478;10.170;2022-09-09T13:20:19;1.40;;;1.30;;
15402;SDS011;7799;53.478;10.170;2022-09-09T13:22:46;1.20;;;1.10;;
15402;SDS011;7799;53.478;10.170;2022-09-09T13:25:19;0.90;;;0.90;;
15402;SDS011;7799;53.478;10.170;2022-09-09T13:27:57;1.40;;;1.30;;
15402;SDS011;7799;53.478;10.170;2022-09-09T13:30:26;2.13;;;1.60;;
15402;SDS011;7799;53.478;10.170;2022-09-09T13:33:05;1.97;;;1.40;;
15402;SDS011;7799;53.478;10.170;2022-09-09T13:35:45;1.60;;;1.50;;
15402;SDS011;7799;53.478;10.170;2022-09-09T13:38:13;1.37;;;1.30;;
15402;SDS011;7799;53.478;10.170;2022-09-09T13:40:42;1.13;;;1.10;;
15402;SDS011;7799;53.478;10.170;2022-09-09T13:43:20;1.20;;;1.00;;
15402;SDS011;7799;53.478;10.170;2022-09-09T13:45:52;0.97;;;0.97;;
15402;SDS011;7799;53.478;10.170;2022-09-09T13:48:21;1.20;;;1.10;;
15402;SDS011;7799;53.478;10.170;2022-09-09T13:50:53;1.20;;;1.20;;
15402;SDS011;7799;53.478;10.170;2022-09-09T13:53:20;1.70;;;1.60;;
15402;SDS011;7799;53.478;10.170;2022-09-09T13:55:48;2.13;;;1.40;;
15402;SDS011;7799;53.478;10.170;2022-09-09T13:58:15;1.63;;;1.40;;
15402;SDS011;7799;53.478;10.170;2022-09-09T14:00:43;2.33;;;2.00;;
15402;SDS011;7799;53.478;10.170;2022-09-09T14:03:09;1.90;;;1.63;;
15402;SDS011;7799;53.478;10.170;2022-09-09T14:05:36;3.03;;;1.90;;
15402;SDS011;7799;53.478;10.170;2022-09-09T14:08:03;1.57;;;1.47;;
15402;SDS011;7799;53.478;10.170;2022-09-09T14:10:30;2.30;;;1.37;;
15402;SDS011;7799;53.478;10.170;2022-09-09T14:12:57;1.30;;;1.10;;
15402;SDS011;7799;53.478;10.170;2022-09-09T14:15:24;1.53;;;1.43;;
15402;SDS011;7799;53.478;10.170;2022-09-09T14:17:52;1.20;;;1.10;;
15402;SDS011;7799;53.478;10.170;2022-09-09T14:20:18;1.40;;;1.00;;
15402;SDS011;7799;53.478;10.170;2022-09-09T14:22:45;2.70;;;1.27;;
15402;SDS011;7799;53.478;10.170;2022-09-09T14:25:12;1.20;;;1.10;;
15402;SDS011;7799;53.478;10.170;2022-09-09T14:27:39;1.00;;;1.00;;
15402;SDS011;7799;53.478;10.170;2022-09-09T14:30:07;1.60;;;1.20;;
15402;SDS011;7799;53.478;10.170;2022-09-09T14:32:34;1.07;;;0.97;;
15402;SDS011;7799;53.478;10.170;2022-09-09T14:35:01;0.70;;;0.70;;
15402;SDS011;7799;53.478;10.170;2022-09-09T14:37:28;0.93;;;0.90;;
15402;SDS011;7799;53.478;10.170;2022-09-09T14:39:56;0.80;;;0.80;;
15402;SDS011;7799;53.478;10.170;2022-09-09T14:42:22;1.13;;;0.80;;
15402;SDS011;7799;53.478;10.170;2022-09-09T14:44:49;0.80;;;0.80;;
15402;SDS011;7799;53.478;10.170;2022-09-09T14:47:16;0.80;;;0.77;;
15402;SDS011;7799;53.478;10.170;2022-09-09T14:49:43;0.80;;;0.80;;
15402;SDS011;7799;53.478;10.170;2022-09-09T14:52:10;0.80;;;0.80;;
15402;SDS011;7799;53.478;10.170;2022-09-09T14:54:37;0.80;;;0.80;;
15402;SDS011;7799;53.478;10.170;2022-09-09T14:57:03;0.80;;;0.77;;
15402;SDS011;7799;53.478;10.170;2022-09-09T14:59:30;0.80;;;0.80;;
15402;SDS011;7799;53.478;10.170;2022-09-09T15:01:56;0.60;;;0.60;;
15402;SDS011;7799;53.478;10.170;2022-09-09T15:04:24;0.60;;;0.60;;
15402;SDS011;7799;53.478;10.170;2022-09-09T15:06:52;1.50;;;0.80;;
15402;SDS011;7799;53.478;10.170;2022-09-09T15:09:19;1.37;;;0.73;;
15402;SDS011;7799;53.478;10.170;2022-09-09T15:11:45;0.87;;;0.60;;
15402;SDS011;7799;53.478;10.170;2022-09-09T15:14:12;0.73;;;0.73;;